Time;durP1;ratioP1;P1;durP2;ratioP2;P2;SDS_P1;SDS_P2;PMS_P1;PMS_P2;Temp;Humidity;BMP_temperature;BMP_pressure;BME280_temperature;BME280_humidity;BME280_pressure;Samples;Min_cycle;Max_cycle;Signal;HPM_P1;HPM_P2
2022/07/16 00:01:24;;;;;;;3.38;1.77;;;;;;;18.54;50.11;96586.81;5028193;28;20049;-79
2022/07/16 00:03:54;;;;;;;4.85;2.00;;;;;;;18.46;49.72;96589.41;5028951;28;20263;-79
2022/07/16 00:06:21;;;;;;;5.65;1.80;;;;;;;18.39;49.89;96581.00;5028392;28;20131;-79
2022/07/16 00:08:48;;;;;;;4.65;2.10;;;;;;;18.37;50.85;96577.00;5028742;28;20052;-79
2022/07/16 00:11:15;;;;;;;3.45;2.17;;;;;;;18.37;51.11;96574.22;5028188;28;20045;-79
2022/07/16 00:13:42;;;;;;;4.43;2.15;;;;;;;18.39;52.44;96572.72;5028688;28;20052;-79
2022/07/16 00:16:09;;;;;;;2.83;2.08;;;;;;;18.36;52.42;96567.94;5028070;28;20048;-80
2022/07/16 00:21:23;;;;;;;3.80;1.98;;;;;;;18.34;51.95;96577.75;5028149;28;20053;-79
2022/07/16 00:23:49;;;;;;;4.15;2.28;;;;;;;18.26;51.76;96574.03;5020824;28;20054;-79
2022/07/16 00:26:16;;;;;;;3.80;2.20;;;;;;;18.22;53.19;96570.41;5008123;28;20050;-79
2022/07/16 00:28:42;;;;;;;3.30;1.90;;;;;;;18.21;52.75;96566.84;5008549;28;20053;-79
2022/07/16 00:31:09;;;;;;;4.30;2.35;;;;;;;18.18;51.95;96566.78;5008060;28;20053;-79
2022/07/16 00:33:37;;;;;;;5.03;2.40;;;;;;;18.08;52.07;96562.63;5008417;28;20060;-80
2022/07/16 00:36:04;;;;;;;4.13;1.83;;;;;;;18.04;53.02;96560.97;5008180;28;20408;-79
2022/07/16 00:38:33;;;;;;;3.72;2.42;;;;;;;17.99;53.47;96560.06;5008158;28;20493;-78
2022/07/16 00:40:59;;;;;;;5.07;2.33;;;;;;;17.89;53.05;96563.41;5008262;28;20041;-79
2022/07/16 00:43:26;;;;;;;4.93;2.30;;;;;;;17.83;53.14;96556.56;5008063;28;20049;-79
2022/07/16 00:45:52;;;;;;;3.53;2.10;;;;;;;17.81;53.40;96566.38;5007765;28;20050;-79
2022/07/16 00:48:19;;;;;;;4.28;2.33;;;;;;;17.72;53.73;96569.28;5007867;28;20042;-79
2022/07/16 00:50:45;;;;;;;4.35;2.03;;;;;;;17.66;54.63;96562.47;5008387;28;20050;-79
2022/07/16 00:53:12;;;;;;;3.08;2.08;;;;;;;17.70;55.12;96563.34;5017816;28;20049;-79
2022/07/16 00:55:40;;;;;;;4.50;2.33;;;;;;;17.63;54.71;96563.16;5027981;28;20057;-79
2022/07/16 00:58:07;;;;;;;4.20;2.22;;;;;;;17.60;55.76;96569.41;5027561;28;20395;-79
2022/07/16 01:00:33;;;;;;;4.63;2.42;;;;;;;17.58;56.36;96567.00;5027736;28;20045;-78
2022/07/16 01:03:01;;;;;;;7.90;2.55;;;;;;;17.52;57.06;96562.13;5027982;28;20443;-79
2022/07/16 01:05:29;;;;;;;3.97;2.50;;;;;;;17.49;56.95;96569.16;5027659;28;20049;-79
2022/07/16 01:07:56;;;;;;;5.85;2.72;;;;;;;17.45;56.64;96574.56;5027781;28;20056;-78
2022/07/16 01:10:23;;;;;;;3.60;2.53;;;;;;;17.42;57.12;96564.25;5027220;28;20045;-79
2022/07/16 01:12:52;;;;;;;5.43;2.30;;;;;;;17.44;56.63;96570.22;5027656;28;20440;-79
2022/07/16 01:15:18;;;;;;;4.72;2.38;;;;;;;17.43;56.94;96576.88;5027534;28;20457;-79
2022/07/16 01:17:45;;;;;;;3.25;2.60;;;;;;;17.42;56.48;96574.47;5027645;28;20049;-79
2022/07/16 01:20:12;;;;;;;3.53;2.30;;;;;;;17.43;55.99;96576.88;5027094;28;20057;-79
2022/07/16 01:22:38;;;;;;;3.78;2.53;;;;;;;17.41;55.10;96573.69;5027412;28;20468;-79
2022/07/16 01:25:09;;;;;;;5.93;2.58;;;;;;;17.36;55.80;96573.97;5026830;28;20049;-79
2022/07/16 01:27:35;;;;;;;7.22;2.63;;;;;;;17.36;56.65;96579.47;5027667;28;20053;-79
2022/07/16 01:30:02;;;;;;;4.60;2.58;;;;;;;17.32;56.55;96570.31;5027001;28;20057;-78
2022/07/16 01:32:29;;;;;;;6.13;2.17;;;;;;;17.31;56.73;96568.72;5027318;28;20046;-79
2022/07/16 01:34:55;;;;;;;3.90;2.30;;;;;;;17.26;56.02;96571.75;5027436;28;20041;-79
2022/07/16 01:37:22;;;;;;;4.78;2.47;;;;;;;17.22;56.84;96584.59;5027058;28;20053;-79
2022/07/16 01:39:48;;;;;;;5.03;2.50;;;;;;;17.14;56.50;96569.09;5027044;28;20057;-79
2022/07/16 01:42:16;;;;;;;7.22;2.58;;;;;;;17.07;56.57;96582.66;5027210;28;20691;-79
2022/07/16 01:44:43;;;;;;;6.47;2.88;;;;;;;17.04;56.92;96577.88;5027388;28;20050;-79
2022/07/16 01:47:10;;;;;;;5.28;2.80;;;;;;;17.06;57.21;96578.31;5027064;28;20055;-79
2022/07/16 01:49:38;;;;;;;5.85;2.72;;;;;;;17.03;56.56;96579.03;5027135;28;20045;-78
2022/07/16 01:52:09;;;;;;;5.10;2.58;;;;;;;17.02;56.95;96571.91;5040743;28;20410;-79
2022/07/16 01:54:36;;;;;;;5.45;2.58;;;;;;;16.95;56.75;96573.31;5110740;28;20120;-79
2022/07/16 01:57:03;;;;;;;4.28;2.50;;;;;;;16.96;56.43;96579.63;5111704;28;20043;-79
2022/07/16 01:59:31;;;;;;;4.07;2.70;;;;;;;16.93;56.70;96570.16;5114573;27;20042;-78
2022/07/16 02:01:58;;;;;;;3.85;2.50;;;;;;;16.94;56.94;96579.19;5114688;28;20058;-79
2022/07/16 02:04:24;;;;;;;5.55;2.60;;;;;;;16.97;57.19;96580.44;5114129;28;20049;-79
2022/07/16 02:06:51;;;;;;;6.65;2.80;;;;;;;16.94;56.70;96577.25;5114410;27;20043;-79
2022/07/16 02:09:17;;;;;;;4.55;2.60;;;;;;;16.91;57.18;96582.63;5113918;28;20051;-78
2022/07/16 02:11:44;;;;;;;4.47;2.60;;;;;;;16.95;56.83;96584.34;5114740;28;20047;-79
2022/07/16 02:14:11;;;;;;;5.60;2.60;;;;;;;16.94;56.55;96588.25;5113881;28;20572;-79
2022/07/16 02:16:39;;;;;;;4.82;2.20;;;;;;;16.95;56.48;96589.84;5114491;28;20054;-79
2022/07/16 02:19:05;;;;;;;4.55;2.80;;;;;;;16.92;56.48;96582.31;5113796;28;20499;-79
2022/07/16 02:21:32;;;;;;;4.05;2.35;;;;;;;16.90;55.99;96578.28;5110671;28;20070;-79
2022/07/16 02:23:59;;;;;;;4.35;3.03;;;;;;;16.88;56.61;96575.91;5011466;28;20050;-79
2022/07/16 02:26:26;;;;;;;5.78;2.70;;;;;;;16.89;56.77;96583.00;5009917;28;20407;-79
2022/07/16 02:28:53;;;;;;;4.72;2.67;;;;;;;16.89;57.88;96585.75;5010367;28;20053;-79
2022/07/16 02:31:20;;;;;;;5.55;2.70;;;;;;;16.88;57.73;96577.84;5010195;28;20074;-79
2022/07/16 02:33:48;;;;;;;5.30;2.97;;;;;;;16.87;58.44;96579.81;5010361;28;20053;-79
2022/07/16 02:36:15;;;;;;;4.55;3.10;;;;;;;16.88;58.14;96577.84;5009685;28;20057;-78
2022/07/16 02:38:41;;;;;;;6.57;3.25;;;;;;;16.82;57.15;96585.56;5010495;28;20056;-79
2022/07/16 02:41:08;;;;;;;6.40;2.80;;;;;;;16.75;57.21;96579.06;5009950;28;20041;-79
2022/07/16 02:43:34;;;;;;;4.82;2.40;;;;;;;16.73;58.05;96581.38;5010194;28;20493;-78
2022/07/16 02:46:01;;;;;;;5.93;2.85;;;;;;;16.70;57.65;96582.84;5010082;28;20388;-79
2022/07/16 02:48:28;;;;;;;7.00;2.70;;;;;;;16.66;56.43;96587.47;5009931;28;20045;-78
2022/07/16 02:50:55;;;;;;;5.85;3.08;;;;;;;16.61;57.01;96584.97;5009996;28;20462;-79
2022/07/16 02:53:22;;;;;;;5.07;2.80;;;;;;;16.60;57.78;96588.84;5011814;28;20057;-78
2022/07/16 02:55:48;;;;;;;6.45;3.20;;;;;;;16.54;57.32;96596.56;5010135;28;20046;-79
2022/07/16 02:58:15;;;;;;;4.25;3.00;;;;;;;16.51;58.29;96596.47;5009257;28;20053;-79
2022/07/16 03:00:41;;;;;;;5.20;2.58;;;;;;;16.47;58.92;96590.06;5010133;28;20042;-79
2022/07/16 03:03:08;;;;;;;4.70;2.83;;;;;;;16.48;58.80;96602.66;5009313;28;20050;-78
2022/07/16 03:05:34;;;;;;;3.70;2.58;;;;;;;16.39;57.30;96600.03;5009849;28;20046;-79
2022/07/16 03:08:02;;;;;;;5.15;3.00;;;;;;;16.31;57.83;96595.50;5009577;28;20050;-79
2022/07/16 03:10:29;;;;;;;3.88;2.78;;;;;;;16.27;58.03;96597.34;5022741;28;20077;-79
2022/07/16 03:12:55;;;;;;;4.80;2.80;;;;;;;16.26;58.58;96604.00;5018272;28;20057;-79
2022/07/16 03:15:22;;;;;;;5.85;3.40;;;;;;;16.25;58.85;96600.47;5009463;28;20501;-79
2022/07/16 03:17:48;;;;;;;4.07;2.75;;;;;;;16.21;59.01;96596.81;5009843;28;20049;-79
2022/07/16 03:20:15;;;;;;;6.15;3.10;;;;;;;16.19;58.32;96596.38;5009402;28;20487;-79
2022/07/16 03:22:45;;;;;;;5.47;2.65;;;;;;;16.12;58.13;96598.88;5012025;28;20494;-78
2022/07/16 03:25:14;;;;;;;3.95;2.80;;;;;;;16.09;58.49;96602.34;5008970;28;20045;-79
2022/07/16 03:27:41;;;;;;;6.15;3.05;;;;;;;16.06;58.46;96608.50;5009671;28;20053;-80
2022/07/16 03:30:09;;;;;;;4.22;3.00;;;;;;;16.06;59.73;96601.06;5008092;28;20046;-79
2022/07/16 03:32:35;;;;;;;5.70;3.03;;;;;;;16.08;60.28;96603.50;5009067;28;20042;-79
2022/07/16 03:35:04;;;;;;;5.75;2.78;;;;;;;16.03;59.00;96601.00;5008968;28;20409;-79
2022/07/16 03:40:23;;;;;;;4.25;2.97;;;;;;;15.91;58.31;96613.56;5009121;28;20119;-80
2022/07/16 03:42:50;;;;;;;4.72;3.00;;;;;;;15.90;59.11;96609.22;5009348;28;20049;-79
2022/07/16 03:45:16;;;;;;;6.38;3.00;;;;;;;15.82;57.59;96610.19;5008783;28;20054;-79
2022/07/16 03:47:43;;;;;;;3.70;2.75;;;;;;;15.70;57.24;96604.69;5009308;28;20057;-78
2022/07/16 03:50:10;;;;;;;5.55;3.10;;;;;;;15.56;57.33;96609.72;5008751;28;20045;-78
2022/07/16 03:52:36;;;;;;;5.43;2.88;;;;;;;15.53;57.77;96613.13;5011270;28;20046;-79
2022/07/16 03:55:03;;;;;;;5.75;2.90;;;;;;;15.53;57.93;96618.63;5008945;28;20053;-79
2022/07/16 03:57:31;;;;;;;5.57;3.28;;;;;;;15.54;58.42;96609.25;5009413;28;20065;-79
2022/07/16 03:59:58;;;;;;;3.60;2.40;;;;;;;15.61;60.22;96620.47;5009161;28;20053;-79
2022/07/16 04:02:24;;;;;;;4.82;2.72;;;;;;;15.64;60.12;96614.31;5008775;28;20050;-79
2022/07/16 04:04:50;;;;;;;7.13;3.17;;;;;;;15.68;59.38;96620.72;5009157;28;20045;-79
2022/07/16 04:07:17;;;;;;;5.95;3.28;;;;;;;15.67;59.33;96623.81;5008355;28;20053;-79
2022/07/16 04:09:44;;;;;;;8.13;3.00;;;;;;;15.60;59.55;96632.56;5008931;28;20050;-79
2022/07/16 04:12:10;;;;;;;5.78;3.30;;;;;;;15.52;59.46;96633.50;5008781;28;20512;-78
2022/07/16 04:14:38;;;;;;;5.15;2.88;;;;;;;15.52;59.47;96628.81;5008903;28;20053;-78
2022/07/16 04:17:04;;;;;;;5.78;3.33;;;;;;;15.54;59.82;96626.50;5008516;28;20046;-78
2022/07/16 04:19:31;;;;;;;6.15;3.17;;;;;;;15.50;60.06;96630.28;5007724;28;20516;-79
2022/07/16 04:21:58;;;;;;;5.28;3.33;;;;;;;15.46;60.22;96630.19;5023053;28;20366;-78
2022/07/16 04:24:24;;;;;;;4.40;2.80;;;;;;;15.52;60.88;96628.00;5111274;27;20052;-81
2022/07/16 04:26:51;;;;;;;4.20;2.80;;;;;;;15.50;60.53;96631.06;5112145;28;20441;-82
2022/07/16 04:29:17;;;;;;;5.38;3.25;;;;;;;15.47;61.02;96636.47;5111688;28;20039;-80
2022/07/16 04:31:45;;;;;;;5.30;2.90;;;;;;;15.45;60.54;96638.72;5111784;28;20043;-82
2022/07/16 04:34:12;;;;;;;5.63;2.97;;;;;;;15.46;61.47;96640.34;5111921;28;20043;-78
2022/07/16 04:36:38;;;;;;;4.50;2.97;;;;;;;15.54;61.91;96642.19;5112077;28;20044;-79
2022/07/16 04:39:05;;;;;;;6.93;3.42;;;;;;;15.52;61.17;96645.28;5112121;28;20047;-78
2022/07/16 04:41:31;;;;;;;6.25;3.40;;;;;;;15.54;61.98;96642.97;5112307;28;20065;-78
2022/07/16 04:43:58;;;;;;;5.13;3.03;;;;;;;15.58;62.30;96648.59;5112276;28;20047;-82
2022/07/16 04:46:24;;;;;;;3.63;2.80;;;;;;;15.64;61.96;96647.25;5111687;28;20059;-78
2022/07/16 04:48:52;;;;;;;5.20;2.72;;;;;;;15.63;61.43;96645.66;5111814;27;20731;-81
2022/07/16 04:51:19;;;;;;;4.65;2.88;;;;;;;15.59;60.93;96647.44;5111208;28;20051;-81
2022/07/16 04:53:45;;;;;;;6.78;2.72;;;;;;;15.62;61.11;96655.78;5014881;28;20046;-79
2022/07/16 04:56:12;;;;;;;5.18;3.10;;;;;;;15.68;61.73;96653.66;5008179;28;20071;-80
2022/07/16 04:58:38;;;;;;;5.82;2.80;;;;;;;15.66;61.04;96650.47;5008379;28;20500;-79
2022/07/16 05:01:06;;;;;;;7.78;3.55;;;;;;;15.64;60.82;96658.22;5008140;28;20068;-80
2022/07/16 05:03:32;;;;;;;3.80;3.05;;;;;;;15.60;61.67;96655.31;5008565;28;20042;-78
2022/07/16 05:06:00;;;;;;;5.32;3.10;;;;;;;15.64;61.87;96655.47;5008329;28;20070;-79
2022/07/16 05:08:27;;;;;;;4.85;3.28;;;;;;;15.48;62.24;96654.53;5008195;28;20045;-79
2022/07/16 05:10:53;;;;;;;4.65;3.20;;;;;;;15.39;62.44;96662.84;5007907;28;20042;-78
2022/07/16 05:13:20;;;;;;;7.65;3.88;;;;;;;15.39;63.05;96660.91;5007852;28;20050;-79
2022/07/16 05:15:46;;;;;;;7.40;3.28;;;;;;;15.44;62.81;96656.34;5008144;28;20046;-79
2022/07/16 05:18:13;;;;;;;4.82;3.30;;;;;;;15.55;62.81;96661.03;5007517;28;20042;-79
2022/07/16 05:20:39;;;;;;;7.03;3.22;;;;;;;15.64;63.04;96653.53;5008319;28;20046;-79
2022/07/16 05:23:07;;;;;;;4.93;3.20;;;;;;;15.71;62.79;96655.69;5009497;28;20141;-79
2022/07/16 05:25:34;;;;;;;6.63;3.28;;;;;;;15.77;62.71;96656.28;5007794;28;20050;-80
2022/07/16 05:28:00;;;;;;;5.03;2.80;;;;;;;15.85;61.93;96658.91;5008156;28;20046;-79
2022/07/16 05:30:27;;;;;;;5.15;3.30;;;;;;;15.85;61.65;96658.91;5008250;28;20045;-80
2022/07/16 05:32:54;;;;;;;6.50;3.13;;;;;;;15.93;61.17;96659.94;5014690;28;20146;-79
2022/07/16 05:35:21;;;;;;;7.35;3.20;;;;;;;15.81;60.86;96662.66;5014072;28;21361;-79
2022/07/16 05:37:47;;;;;;;5.60;3.40;;;;;;;15.82;61.71;96659.59;5014603;28;20042;-79
2022/07/16 05:40:16;;;;;;;8.65;3.17;;;;;;;16.03;61.76;96664.16;5014063;28;20057;-79
2022/07/16 05:42:43;;;;;;;5.18;2.90;;;;;;;16.05;61.77;96656.38;5014363;28;20045;-80
2022/07/16 05:45:10;;;;;;;5.60;3.60;;;;;;;16.09;61.81;96669.06;5014166;28;20053;-79
2022/07/16 05:47:36;;;;;;;4.63;3.80;;;;;;;16.22;62.61;96672.59;5014313;28;20048;-79
2022/07/16 05:50:04;;;;;;;4.60;3.00;;;;;;;16.38;61.75;96665.22;5013780;28;20055;-79
2022/07/16 05:52:31;;;;;;;4.30;2.90;;;;;;;16.46;59.98;96673.69;5050637;27;20050;-80
2022/07/16 05:54:57;;;;;;;3.53;3.00;;;;;;;16.50;60.33;96674.59;5118020;27;20039;-79
2022/07/16 05:57:28;;;;;;;9.75;2.90;;;;;;;16.57;60.81;96674.78;5117198;27;20046;-79
2022/07/16 05:59:54;;;;;;;5.53;3.50;;;;;;;16.57;60.69;96672.84;5117623;27;20060;-79
2022/07/16 06:02:21;;;;;;;5.55;2.97;;;;;;;16.57;59.54;96678.34;5117167;27;20044;-78
2022/07/16 06:04:47;;;;;;;7.32;3.13;;;;;;;16.53;58.29;96677.44;5117367;27;20047;-79
2022/07/16 06:07:13;;;;;;;7.28;3.78;;;;;;;16.65;58.95;96684.81;5117319;27;20044;-80
2022/07/16 06:09:40;;;;;;;5.25;2.83;;;;;;;16.74;59.04;96691.03;5117454;27;20055;-79
2022/07/16 06:12:06;;;;;;;5.43;3.42;;;;;;;16.88;59.35;96688.69;5116946;27;20115;-79
2022/07/16 06:14:34;;;;;;;6.43;3.15;;;;;;;16.92;59.16;96694.28;5117577;27;20510;-79
2022/07/16 06:17:01;;;;;;;4.70;2.97;;;;;;;16.95;58.78;96694.38;5117959;27;20078;-79
2022/07/16 06:19:27;;;;;;;6.95;3.40;;;;;;;16.92;58.17;96689.59;5116987;27;20064;-80
2022/07/16 06:21:54;;;;;;;5.88;3.20;;;;;;;17.10;58.11;96694.75;5109441;27;20050;-79
2022/07/16 06:24:20;;;;;;;6.95;3.17;;;;;;;17.20;57.81;96694.25;5032954;28;20060;-79
2022/07/16 06:26:47;;;;;;;8.07;3.22;;;;;;;17.30;57.56;96698.44;5033500;28;20496;-79
2022/07/16 06:29:15;;;;;;;4.97;3.00;;;;;;;17.33;57.02;96704.06;5033219;28;20057;-80
2022/07/16 06:31:44;;;;;;;6.18;3.13;;;;;;;17.34;57.76;96705.66;5033473;28;20543;-80
2022/07/16 06:34:11;;;;;;;4.80;2.80;;;;;;;17.54;58.21;96700.22;5033261;28;20053;-79
2022/07/16 06:36:38;;;;;;;6.00;3.30;;;;;;;17.46;56.19;96702.81;5033566;28;20504;-79
2022/07/16 06:39:05;;;;;;;6.68;3.03;;;;;;;17.54;57.32;96708.50;5032944;28;20407;-79
2022/07/16 06:41:32;;;;;;;7.25;3.30;;;;;;;17.64;57.81;96705.22;5033392;28;20045;-80
2022/07/16 06:43:58;;;;;;;4.20;2.58;;;;;;;17.85;56.67;96707.72;5029397;28;20045;-80
2022/07/16 06:46:25;;;;;;;5.97;2.78;;;;;;;17.92;55.53;96711.47;5029366;28;20049;-79
2022/07/16 06:48:52;;;;;;;7.60;2.78;;;;;;;17.93;55.96;96707.53;5029752;28;20660;-80
2022/07/16 06:51:19;;;;;;;5.88;3.25;;;;;;;17.96;54.46;96709.59;5029352;28;20053;-80
2022/07/16 06:53:46;;;;;;;4.80;2.60;;;;;;;18.12;54.81;96708.78;5012912;28;20053;-79
2022/07/16 06:56:12;;;;;;;6.00;2.67;;;;;;;18.34;54.54;96708.09;5009513;28;20054;-79
2022/07/16 06:58:39;;;;;;;4.93;2.50;;;;;;;18.40;52.57;96712.16;5009836;28;20058;-80
2022/07/16 07:01:05;;;;;;;6.53;2.42;;;;;;;18.51;53.75;96713.19;5009170;28;20549;-80
2022/07/16 07:03:32;;;;;;;5.10;2.67;;;;;;;18.49;52.72;96715.53;5009897;28;20050;-79
2022/07/16 07:06:00;;;;;;;4.43;2.63;;;;;;;18.46;54.35;96716.25;5009878;28;20054;-78
2022/07/16 07:08:26;;;;;;;5.28;2.28;;;;;;;18.54;53.58;96710.91;5009385;28;20434;-79
2022/07/16 07:10:53;;;;;;;4.15;2.17;;;;;;;18.76;52.01;96715.75;5009450;28;20050;-78
2022/07/16 07:13:19;;;;;;;4.45;2.47;;;;;;;18.88;52.67;96715.59;5009364;28;20056;-78
2022/07/16 07:15:47;;;;;;;4.22;2.40;;;;;;;18.92;52.84;96710.94;5009563;28;20050;-79
2022/07/16 07:18:13;;;;;;;3.97;2.47;;;;;;;19.04;52.19;96713.53;5009262;28;20492;-79
2022/07/16 07:20:40;;;;;;;5.57;2.40;;;;;;;19.13;51.76;96723.56;5009983;28;20050;-78
2022/07/16 07:23:08;;;;;;;5.03;2.60;;;;;;;19.28;49.29;96711.66;5011255;28;20049;-78
2022/07/16 07:25:34;;;;;;;6.28;2.40;;;;;;;19.26;49.03;96725.81;5009336;28;20049;-79
2022/07/16 07:28:01;;;;;;;4.20;2.08;;;;;;;19.17;49.40;96722.47;5009758;28;20050;-79
2022/07/16 07:30:27;;;;;;;5.88;2.17;;;;;;;19.20;50.05;96709.91;5009105;28;20042;-79
2022/07/16 07:32:54;;;;;;;5.35;2.58;;;;;;;19.29;50.97;96722.31;5009696;28;20046;-78
2022/07/16 07:35:20;;;;;;;4.50;2.20;;;;;;;19.42;50.62;96711.91;5009082;28;20046;-79
2022/07/16 07:37:47;;;;;;;4.65;2.47;;;;;;;19.39;49.21;96718.16;5009542;28;20049;-79
2022/07/16 07:40:15;;;;;;;4.03;2.08;;;;;;;19.34;48.33;96715.69;5009112;28;20041;-79
2022/07/16 07:42:42;;;;;;;4.28;1.98;;;;;;;19.42;49.12;96722.97;5009371;28;20061;-79
2022/07/16 07:45:09;;;;;;;4.78;2.03;;;;;;;19.73;47.35;96721.97;5008665;28;20054;-79
2022/07/16 07:47:37;;;;;;;4.80;2.00;;;;;;;19.81;48.41;96722.88;5009287;28;20050;-79
2022/07/16 07:50:04;;;;;;;7.72;2.20;;;;;;;20.05;45.67;96716.97;5009176;28;20122;-78
2022/07/16 07:52:30;;;;;;;3.85;2.15;;;;;;;20.06;46.55;96712.22;5011123;28;20577;-79
2022/07/16 07:54:57;;;;;;;4.78;2.35;;;;;;;20.00;46.12;96710.97;5007686;28;20057;-79
2022/07/16 07:57:25;;;;;;;6.10;2.67;;;;;;;20.24;45.61;96712.50;5008684;28;20046;-78
2022/07/16 07:59:51;;;;;;;4.78;2.00;;;;;;;20.43;44.57;96704.09;5009151;28;20494;-78
2022/07/16 08:02:18;;;;;;;7.03;2.30;;;;;;;20.68;45.08;96709.22;5008542;28;20054;-79
2022/07/16 08:04:45;;;;;;;3.55;2.28;;;;;;;20.89;46.50;96706.72;5009112;28;20041;-78
2022/07/16 08:07:12;;;;;;;6.35;2.72;;;;;;;21.22;47.76;96705.13;5008889;28;20064;-79
2022/07/16 08:09:39;;;;;;;5.85;2.58;;;;;;;21.48;44.12;96705.03;5009407;28;20060;-79
2022/07/16 08:12:06;;;;;;;4.85;2.50;;;;;;;21.61;42.45;96711.91;5008664;28;20447;-79
2022/07/16 08:14:34;;;;;;;5.50;2.55;;;;;;;22.23;40.75;96713.22;5008795;28;20042;-79
2022/07/16 08:17:00;;;;;;;5.40;2.40;;;;;;;22.80;39.58;96716.34;5008819;28;20066;-79
2022/07/16 08:19:27;;;;;;;5.68;2.55;;;;;;;23.24;39.37;96720.94;5008426;28;20040;-79
2022/07/16 08:21:53;;;;;;;4.65;2.65;;;;;;;23.77;38.30;96715.53;5010691;28;20053;-78
2022/07/16 08:27:05;;;;;;;4.32;2.35;;;;;;;23.69;37.88;96713.91;5008318;28;20053;-79
2022/07/16 08:29:34;;;;;;;4.00;2.55;;;;;;;23.86;38.60;96717.94;5008916;28;20049;-80
2022/07/16 08:32:01;;;;;;;6.63;2.55;;;;;;;23.84;38.16;96715.53;5008347;28;20046;-78
2022/07/16 08:34:27;;;;;;;5.32;2.60;;;;;;;24.20;39.16;96716.31;5008174;28;20045;-79
2022/07/16 08:36:54;;;;;;;4.75;2.60;;;;;;;24.46;35.99;96722.69;5008395;28;20485;-79
2022/07/16 08:39:21;;;;;;;6.93;2.97;;;;;;;24.55;35.08;96720.28;5007696;28;20602;-79
2022/07/16 08:41:49;;;;;;;6.10;2.75;;;;;;;24.24;36.88;96718.31;5008124;28;20068;-79
2022/07/16 08:44:16;;;;;;;5.65;2.65;;;;;;;24.32;39.06;96719.88;5007328;28;20053;-79
2022/07/16 08:46:44;;;;;;;3.47;2.30;;;;;;;24.34;38.25;96720.31;5008241;28;20054;-79
2022/07/16 08:49:10;;;;;;;4.93;2.60;;;;;;;24.33;36.88;96718.72;5006473;28;20049;-79
2022/07/16 08:51:39;;;;;;;6.28;2.70;;;;;;;24.54;38.87;96707.56;5009655;28;20064;-78
2022/07/16 08:54:09;;;;;;;3.05;2.22;;;;;;;24.45;36.24;96719.13;5027153;28;20133;-79
2022/07/16 08:56:36;;;;;;;4.20;2.33;;;;;;;24.32;37.20;96725.44;5026762;28;20115;-79
2022/07/16 08:59:05;;;;;;;5.53;3.25;;;;;;;24.11;37.13;96721.47;5026949;28;20045;-79
2022/07/16 09:01:32;;;;;;;8.43;2.78;;;;;;;24.38;34.91;96715.53;5027718;28;20049;-79
2022/07/16 09:04:02;;;;;;;5.13;2.78;;;;;;;24.55;35.31;96713.94;5027165;28;20093;-79
2022/07/16 09:06:28;;;;;;;6.63;2.63;;;;;;;24.50;37.11;96706.78;5026878;28;20659;-79
2022/07/16 09:08:56;;;;;;;5.68;2.65;;;;;;;24.17;35.04;96716.31;5027049;28;20066;-80
2022/07/16 09:11:24;;;;;;;4.82;2.92;;;;;;;24.01;35.86;96722.28;5026779;28;20050;-79
2022/07/16 09:14:00;;;;;;;4.78;2.10;;;;;;;23.98;34.32;96722.28;5027255;28;20060;-79
2022/07/16 09:16:30;;;;;;;5.20;2.33;;;;;;;23.95;35.92;96721.88;5026655;28;20053;-81
2022/07/16 09:19:08;;;;;;;4.90;2.80;;;;;;;24.21;36.99;96723.47;5027017;28;20060;-79
2022/07/16 09:21:36;;;;;;;4.40;2.45;;;;;;;24.39;36.24;96717.94;5026747;28;20049;-78
2022/07/16 09:24:02;;;;;;;6.90;2.80;;;;;;;24.23;33.06;96713.94;5007048;28;20061;-79
2022/07/16 09:26:29;;;;;;;6.32;2.55;;;;;;;24.17;33.78;96719.91;5007227;28;20196;-80
2022/07/16 09:29:01;;;;;;;6.07;2.70;;;;;;;23.97;34.00;96712.38;5007319;28;20049;-79
2022/07/16 09:31:33;;;;;;;5.00;2.60;;;;;;;24.25;34.24;96714.34;5006976;28;20046;-78
2022/07/16 09:34:02;;;;;;;5.80;2.50;;;;;;;24.27;35.42;96703.59;5007389;28;20050;-78
2022/07/16 09:36:29;;;;;;;4.65;2.50;;;;;;;24.25;34.35;96706.00;5006603;28;20280;-77
2022/07/16 09:38:56;;;;;;;5.00;2.45;;;;;;;24.41;34.58;96714.75;5007053;28;20124;-78
2022/07/16 09:41:23;;;;;;;6.15;2.40;;;;;;;24.45;33.51;96704.41;5006620;28;20053;-78
2022/07/16 09:43:50;;;;;;;6.55;2.65;;;;;;;24.63;34.60;96713.50;5007128;28;20053;-78
2022/07/16 09:46:18;;;;;;;10.07;4.97;;;;;;;24.52;32.45;96709.16;5006284;28;20454;-78
2022/07/16 09:48:46;;;;;;;4.72;2.65;;;;;;;23.95;33.87;96715.53;5007164;28;20049;-78
2022/07/16 09:51:16;;;;;;;6.65;3.05;;;;;;;23.99;33.79;96705.19;5006404;28;20050;-79
2022/07/16 09:53:44;;;;;;;6.50;2.17;;;;;;;24.27;32.79;96703.59;5009554;28;20516;-78
2022/07/16 09:56:13;;;;;;;6.80;2.33;;;;;;;24.36;33.67;96706.78;5006969;28;20590;-78
2022/07/16 09:58:40;;;;;;;6.65;2.60;;;;;;;24.07;33.59;96712.38;5007315;28;20057;-78
2022/07/16 10:01:07;;;;;;;4.15;2.53;;;;;;;24.25;33.37;96706.00;5007142;28;20049;-78
2022/07/16 10:03:34;;;;;;;5.93;2.38;;;;;;;24.37;33.65;96705.59;5006939;28;20069;-78
2022/07/16 10:06:00;;;;;;;4.30;2.22;;;;;;;24.64;34.80;96711.50;5006839;28;20049;-78
2022/07/16 10:08:27;;;;;;;4.55;2.70;;;;;;;24.60;32.85;96711.53;5006872;28;20046;-77
2022/07/16 10:10:55;;;;;;;6.05;2.50;;;;;;;24.54;31.96;96707.56;5006743;28;20516;-78
2022/07/16 10:13:26;;;;;;;5.10;2.33;;;;;;;24.67;32.29;96705.94;5006735;28;20065;-78
2022/07/16 10:15:53;;;;;;;5.40;2.30;;;;;;;24.91;31.34;96704.28;5006921;28;20169;-78
2022/07/16 10:18:35;;;;;;;8.85;2.75;;;;;;;24.85;35.62;96707.88;5008013;28;20060;-80
2022/07/16 10:21:09;;;;;;;4.53;2.33;;;;;;;25.10;32.24;96697.47;5010043;28;20057;-81
2022/07/16 10:23:37;;;;;;;4.68;2.42;;;;;;;25.08;29.76;96688.72;5025795;28;20056;-79
2022/07/16 10:26:08;;;;;;;5.03;2.42;;;;;;;24.90;31.39;96696.31;5029641;28;20048;-80
2022/07/16 10:28:40;;;;;;;5.13;2.50;;;;;;;24.89;32.69;96703.09;5029631;28;20500;-79
2022/07/16 10:31:38;;;;;;;3.85;2.30;;;;;;;24.90;34.54;96693.53;5029366;28;20057;-80
2022/07/16 10:34:35;;;;;;;9.40;2.90;;;;;;;24.90;32.71;96685.16;5029539;28;20041;-79
2022/07/16 10:37:02;;;;;;;5.40;2.33;;;;;;;24.86;34.98;96695.56;5030594;28;20061;-80
2022/07/16 10:39:29;;;;;;;7.97;2.25;;;;;;;24.98;32.17;96681.97;5029481;28;20047;-80
2022/07/16 10:41:59;;;;;;;4.35;2.38;;;;;;;25.13;32.59;96687.50;5029802;28;20515;-79
2022/07/16 10:44:41;;;;;;;5.57;2.35;;;;;;;25.13;32.06;96685.50;5029234;28;20522;-80
2022/07/16 10:47:08;;;;;;;4.03;2.00;;;;;;;25.16;32.70;96687.50;5029361;28;20519;-78
2022/07/16 10:49:35;;;;;;;3.40;2.10;;;;;;;25.18;33.92;96685.09;5029670;28;20042;-79
2022/07/16 10:52:05;;;;;;;5.47;2.40;;;;;;;24.95;33.74;96682.78;5026442;28;20049;-79
2022/07/16 10:54:35;;;;;;;3.80;2.20;;;;;;;24.96;31.72;96689.16;5009688;28;20048;-78
2022/07/16 10:57:04;;;;;;;5.60;2.00;;;;;;;25.17;32.73;96686.28;5009349;28;20057;-83
2022/07/16 10:59:34;;;;;;;7.57;2.40;;;;;;;24.81;31.96;96682.03;5009523;28;20150;-79
2022/07/16 11:02:02;;;;;;;3.58;2.35;;;;;;;24.83;30.96;96682.41;5009713;28;20050;-80
2022/07/16 11:04:32;;;;;;;7.43;4.25;;;;;;;24.87;32.67;96691.56;5009291;28;20042;-80
2022/07/16 11:07:00;;;;;;;3.13;2.00;;;;;;;24.99;31.75;96688.31;5009627;28;20068;-79
2022/07/16 11:09:29;;;;;;;5.80;2.45;;;;;;;24.83;31.64;96693.56;5008966;28;20052;-80
2022/07/16 11:11:56;;;;;;;3.63;1.90;;;;;;;25.08;32.19;96688.72;5009473;28;20049;-78
2022/07/16 11:14:30;;;;;;;5.45;2.35;;;;;;;25.25;30.62;96690.63;5008954;28;20159;-77
2022/07/16 11:16:57;;;;;;;5.72;2.30;;;;;;;25.23;29.40;96681.88;5009330;28;20042;-78
2022/07/16 11:19:24;;;;;;;3.85;2.28;;;;;;;24.93;30.02;96678.81;5008826;28;20077;-78
2022/07/16 11:21:59;;;;;;;3.42;2.10;;;;;;;24.82;32.77;96673.28;5011610;28;20053;-77
2022/07/16 11:24:26;;;;;;;3.10;2.28;;;;;;;24.63;33.21;96685.66;5008728;28;20046;-77
2022/07/16 11:26:53;;;;;;;5.55;2.28;;;;;;;24.66;33.17;96679.28;5009156;28;20053;-77
2022/07/16 11:29:22;;;;;;;5.63;2.30;;;;;;;24.72;34.58;96686.03;5008650;28;20673;-78
2022/07/16 11:31:50;;;;;;;5.80;2.47;;;;;;;24.67;33.60;96688.44;5009174;28;20046;-79
2022/07/16 11:34:18;;;;;;;5.97;2.05;;;;;;;24.59;32.49;96682.13;5008825;28;20049;-77
2022/07/16 11:36:48;;;;;;;4.00;2.38;;;;;;;24.83;34.30;96674.06;5009291;28;20042;-78
2022/07/16 11:39:17;;;;;;;3.65;2.00;;;;;;;24.82;33.62;96667.72;5008415;28;20066;-78
2022/07/16 11:41:46;;;;;;;5.25;2.28;;;;;;;24.92;33.57;96688.38;5009079;28;20058;-79
2022/07/16 11:44:14;;;;;;;4.57;1.83;;;;;;;24.93;32.72;96673.22;5007998;28;20042;-79